Historical Weather Data
Okotoks
Hwy 2A and Milligan Dr

Date
ET inches
Rain inches
Temperature °C
Humidity
Avg
Wind kmh
Avg
Solar Wm2
Avg
High
Avg
Low
06/01/2021 0.24 0.00 27.9 18.7 7.6 43 6.3 337
06/02/2021 0.25 0.00 31.1 20.4 9.1 42 6.5 343
06/03/2021 0.30 0.00 31.5 22.2 10.3 38 9.7 351
06/04/2021 0.28 0.00 28.1 20.2 10.8 41 11.9 341
06/05/2021 0.13 0.17 16.9 11.8 6.4 72 9.6 255
06/06/2021 0.14 0.05 15.5 8.8 3.2 71 10.6 245
06/07/2021 0.19 0.00 15.6 8.3 0.2 60 10.3 326
06/08/2021 0.13 0.00 16.4 8.7 0.6 68 7.6 219
06/09/2021 0.07 0.11 14.0 8.3 -0.1 87 7.1 133
06/10/2021 0.08 0.05 12.6 9.5 7.2 81 10.1 140
06/11/2021 0.21 0.00 19.3 11.5 1.5 48 8.2 326
06/12/2021 0.22 0.00 21.5 12.4 1.6 47 9.2 319
06/13/2021 0.26 0.00 29.1 16.6 1.8 46 11.6 304
06/14/2021 0.23 0.00 31.1 21.1 8.9 50 6.5 299
06/15/2021 0.27 0.00 27.5 19.2 12.3 52 15.8 316
06/16/2021 0.27 0.00 21.5 14.8 6.2 40 12.2 362
06/17/2021 0.25 0.00 24.9 13.5 1.6 43 9.9 333
06/18/2021 0.24 0.00 23.9 14.4 0.9 51 8.4 337
06/19/2021 0.08 0.40 16.5 12.7 10.0 76 8.9 124
06/20/2021 0.20 0.00 21.6 14.7 8.8 58 10.5 305
06/21/2021 0.23 0.00 27.3 17.0 4.4 50 5.1 358
06/22/2021 0.26 0.00 30.6 20.3 8.1 42 8.3 320
06/23/2021 0.25 0.00 25.3 18.5 12.6 49 11.2 322
06/24/2021 0.10 0.45 20.5 14.2 10.9 79 6.6 178
06/25/2021 0.24 0.00 26.4 18.3 8.9 60 9.5 343
06/26/2021 0.27 0.00 31.0 22.4 12.7 52 7.5 352
06/27/2021 0.26 0.00 31.0 22.8 14.0 55 6.1 351
06/28/2021 0.28 0.00 34.0 23.7 10.5 55 7.0 349
06/29/2021 0.32 0.00 35.2 25.8 15.2 46 9.2 352
06/30/2021 0.34 0.00 34.2 24.9 10.7 39 9.9 361